Time;durP1;ratioP1;P1;durP2;ratioP2;P2;SDS_P1;SDS_P2;PMS_P1;PMS_P2;Temp;Humidity;BMP_temperature;BMP_pressure;BME280_temperature;BME280_humidity;BME280_pressure;Samples;Min_cycle;Max_cycle;Signal;HPM_P1;HPM_P2
2023/07/05 00:00:21;;;;;;;11.73;8.65;;;19.70;88.40;;;;;;5052793;28;20025;-59
2023/07/05 00:03:07;;;;;;;11.57;8.52;;;19.60;88.20;;;;;;5050315;28;20021;-59
2023/07/05 00:05:53;;;;;;;11.38;9.18;;;19.60;88.40;;;;;;5034156;28;20087;-58
2023/07/05 00:08:40;;;;;;;13.27;9.18;;;19.60;88.50;;;;;;5032545;28;20124;-54
2023/07/05 00:11:26;;;;;;;13.60;9.25;;;19.60;88.50;;;;;;5032390;28;20036;-54
2023/07/05 00:14:12;;;;;;;12.65;8.95;;;19.50;88.40;;;;;;5031905;28;20030;-56
2023/07/05 00:16:57;;;;;;;11.73;8.90;;;19.50;88.50;;;;;;5038166;28;20452;-55
2023/07/05 00:19:48;;;;;;;10.77;8.90;;;19.50;88.70;;;;;;5040037;28;20081;-56
2023/07/05 00:22:34;;;;;;;11.65;8.82;;;19.40;88.60;;;;;;5053096;28;20021;-54
2023/07/05 00:25:20;;;;;;;14.80;9.02;;;19.40;88.80;;;;;;5021877;28;20018;-56
2023/07/05 00:28:06;;;;;;;12.93;9.07;;;19.40;88.70;;;;;;5050980;28;20037;-53
2023/07/05 00:30:52;;;;;;;9.50;8.07;;;19.40;88.60;;;;;;5051471;28;20378;-54
2023/07/05 00:33:38;;;;;;;13.57;9.73;;;19.40;88.70;;;;;;5051145;28;20025;-56
2023/07/05 00:36:24;;;;;;;10.20;8.45;;;19.30;88.70;;;;;;5050579;28;20119;-54
2023/07/05 00:39:10;;;;;;;11.05;8.52;;;19.40;88.80;;;;;;5016363;28;20021;-53
2023/07/05 00:41:56;;;;;;;11.40;8.95;;;19.40;88.80;;;;;;5048130;28;20116;-54
2023/07/05 00:44:58;;;;;;;12.68;9.27;;;19.40;88.70;;;;;;5043576;28;20025;-55
2023/07/05 00:47:45;;;;;;;10.57;8.23;;;19.40;88.60;;;;;;5017679;28;20421;-53
2023/07/05 00:50:38;;;;;;;10.93;9.07;;;19.40;88.60;;;;;;5031096;28;20033;-56
2023/07/05 00:53:26;;;;;;;12.25;9.63;;;19.40;88.70;;;;;;5035592;28;20030;-54
2023/07/05 00:56:23;;;;;;;15.73;9.18;;;19.40;89.20;;;;;;5032484;28;20049;-56
2023/07/05 00:59:12;;;;;;;11.48;8.50;;;19.50;89.40;;;;;;5028701;28;20036;-53
2023/07/05 01:01:58;;;;;;;9.80;8.80;;;19.60;89.10;;;;;;5029515;28;20075;-55
2023/07/05 01:04:44;;;;;;;11.95;8.52;;;19.70;88.50;;;;;;5045314;28;20119;-54
2023/07/05 01:07:30;;;;;;;11.63;9.13;;;19.80;88.50;;;;;;5053616;28;20041;-56
2023/07/05 01:10:23;;;;;;;12.27;9.07;;;19.80;88.00;;;;;;5053905;28;20033;-56
2023/07/05 01:13:15;;;;;;;14.40;9.00;;;19.90;87.70;;;;;;5047657;28;20513;-55
2023/07/05 01:16:19;;;;;;;13.05;8.80;;;19.90;87.60;;;;;;5042777;28;20488;-57
2023/07/05 01:19:31;;;;;;;11.45;8.40;;;19.90;87.40;;;;;;5038444;28;20072;-59
2023/07/05 01:22:47;;;;;;;11.30;8.82;;;19.90;87.40;;;;;;5035200;28;20025;-53
2023/07/05 01:25:35;;;;;;;;;;;19.90;87.50;;;;;;5035926;28;20018;-57
2023/07/05 01:28:33;;;;;;;12.30;9.05;;;19.90;87.40;;;;;;5046184;28;19962;-57
2023/07/05 01:31:50;;;;;;;11.98;8.95;;;19.90;87.60;;;;;;5055135;28;20373;-57
2023/07/05 01:34:42;;;;;;;9.15;8.18;;;19.90;87.50;;;;;;5051286;28;20022;-58
2023/07/05 01:37:39;;;;;;;10.90;8.45;;;19.80;87.60;;;;;;5034358;28;20030;-56
2023/07/05 01:40:24;;;;;;;13.20;8.57;;;19.70;87.70;;;;;;5036103;28;20044;-56
2023/07/05 01:43:15;;;;;;;12.50;9.13;;;19.60;88.00;;;;;;5048637;28;20025;-56
2023/07/05 01:46:22;;;;;;;11.50;8.60;;;19.70;88.20;;;;;;5053378;28;20041;-56
2023/07/05 01:49:24;;;;;;;12.07;8.82;;;19.70;87.90;;;;;;5053659;28;20057;-56
2023/07/05 01:52:42;;;;;;;11.32;9.10;;;19.60;87.70;;;;;;5053783;28;20024;-56
2023/07/05 01:55:44;;;;;;;12.57;8.98;;;19.60;88.00;;;;;;5055010;28;20025;-53
2023/07/05 01:58:35;;;;;;;10.32;9.02;;;19.60;87.80;;;;;;5015297;28;20033;-55
2023/07/05 02:01:24;;;;;;;14.00;9.68;;;19.50;87.80;;;;;;5024126;28;20030;-57
2023/07/05 02:04:13;;;;;;;12.38;9.40;;;19.50;87.70;;;;;;5038936;28;20025;-58
2023/07/05 02:06:59;;;;;;;11.90;9.50;;;19.50;87.80;;;;;;5055654;28;20078;-56
2023/07/05 02:09:45;;;;;;;11.38;8.77;;;19.50;87.80;;;;;;5053620;28;20032;-58
2023/07/05 02:12:31;;;;;;;11.20;9.27;;;19.50;87.80;;;;;;5050046;28;20108;-54
2023/07/05 02:15:17;;;;;;;12.77;9.45;;;19.60;87.60;;;;;;5051865;28;20037;-58
2023/07/05 02:18:03;;;;;;;11.93;9.57;;;19.60;87.50;;;;;;5041024;28;20099;-56
2023/07/05 02:20:49;;;;;;;16.73;9.55;;;19.60;87.70;;;;;;5034249;28;20383;-56
2023/07/05 02:23:35;;;;;;;15.00;9.68;;;19.50;87.60;;;;;;5034136;28;20025;-52
2023/07/05 02:26:21;;;;;;;12.80;9.30;;;19.40;87.90;;;;;;5046678;28;20041;-54
2023/07/05 02:29:07;;;;;;;11.80;9.38;;;19.40;88.30;;;;;;5055107;28;20045;-55
2023/07/05 02:31:53;;;;;;;11.77;9.77;;;19.40;88.10;;;;;;5052986;28;20025;-57
2023/07/05 02:34:41;;;;;;;12.55;10.45;;;19.30;88.00;;;;;;5052236;28;20021;-56
2023/07/05 02:37:30;;;;;;;12.80;10.07;;;19.40;88.00;;;;;;5053490;28;20430;-56
2023/07/05 02:40:16;;;;;;;14.52;10.18;;;19.40;88.60;;;;;;5032285;28;20648;-54
2023/07/05 02:43:02;;;;;;;12.02;9.68;;;19.40;88.00;;;;;;5053373;28;20112;-56
2023/07/05 02:45:48;;;;;;;13.32;10.52;;;19.40;88.20;;;;;;5052423;28;20029;-55
2023/07/05 02:48:34;;;;;;;15.00;10.60;;;19.30;88.10;;;;;;5057006;28;20036;-58
2023/07/05 02:51:20;;;;;;;12.23;9.82;;;19.30;88.30;;;;;;5060981;28;20059;-57
2023/07/05 02:54:08;;;;;;;13.60;10.38;;;19.40;88.00;;;;;;5049195;28;20025;-56
2023/07/05 02:56:54;;;;;;;13.35;10.65;;;19.40;87.90;;;;;;5058708;28;20034;-56
2023/07/05 02:59:40;;;;;;;12.80;11.00;;;19.40;87.80;;;;;;5035258;28;20021;-57
2023/07/05 03:02:26;;;;;;;14.80;10.82;;;19.40;87.60;;;;;;5033273;28;20029;-56
2023/07/05 03:05:12;;;;;;;12.65;11.15;;;19.40;87.50;;;;;;5039293;28;20021;-53
2023/07/05 03:07:58;;;;;;;12.18;10.82;;;19.40;87.60;;;;;;5047099;28;20034;-57
2023/07/05 03:10:44;;;;;;;12.23;11.02;;;19.40;87.80;;;;;;5017988;28;20109;-55
2023/07/05 03:13:32;;;;;;;15.02;11.45;;;19.40;87.70;;;;;;5049574;28;20564;-55
2023/07/05 03:16:18;;;;;;;14.70;11.60;;;19.40;87.80;;;;;;5050793;28;20122;-60
2023/07/05 03:19:04;;;;;;;16.95;12.68;;;19.50;88.00;;;;;;5033783;28;20033;-55
2023/07/05 03:21:50;;;;;;;18.52;13.77;;;19.50;87.90;;;;;;5049144;28;20056;-57
2023/07/05 03:24:36;;;;;;;17.27;12.48;;;19.50;87.90;;;;;;5035615;28;20049;-56
2023/07/05 03:27:22;;;;;;;18.45;12.35;;;19.50;88.10;;;;;;5032917;28;20128;-56
2023/07/05 03:30:09;;;;;;;18.08;13.77;;;19.40;88.60;;;;;;5038876;28;20060;-57
2023/07/05 03:32:55;;;;;;;21.80;14.45;;;19.40;88.40;;;;;;5051613;28;20029;-56
2023/07/05 03:35:40;;;;;;;17.75;13.00;;;19.50;88.60;;;;;;5034565;28;20056;-57
2023/07/05 03:38:28;;;;;;;16.67;13.38;;;19.50;88.60;;;;;;5048936;28;20070;-59
2023/07/05 03:41:16;;;;;;;17.52;14.65;;;19.50;88.60;;;;;;5051478;28;20036;-56
2023/07/05 03:44:02;;;;;;;18.58;14.73;;;19.50;88.70;;;;;;5051934;28;20025;-59
2023/07/05 03:46:49;;;;;;;18.27;15.63;;;19.50;88.70;;;;;;5051757;28;20029;-58
2023/07/05 03:49:35;;;;;;;19.38;15.27;;;19.50;88.60;;;;;;5052361;28;20044;-57
2023/07/05 03:52:22;;;;;;;17.85;15.35;;;19.50;88.90;;;;;;5051371;28;20037;-59
2023/07/05 03:55:08;;;;;;;17.67;15.55;;;19.50;88.90;;;;;;5052538;28;20024;-59
2023/07/05 03:57:56;;;;;;;19.67;15.70;;;19.50;89.40;;;;;;5052085;28;20032;-59
2023/07/05 04:00:42;;;;;;;18.42;15.68;;;19.50;89.30;;;;;;5044071;28;20079;-59
2023/07/05 04:03:27;;;;;;;19.85;17.00;;;19.50;89.40;;;;;;5059135;28;20026;-57
2023/07/05 04:06:15;;;;;;;19.95;16.27;;;19.50;89.20;;;;;;5039392;28;20036;-58
2023/07/05 04:09:01;;;;;;;22.48;16.35;;;19.50;89.30;;;;;;5051978;28;20031;-59
2023/07/05 04:11:47;;;;;;;22.23;16.25;;;19.50;89.30;;;;;;5050268;28;20021;-57
2023/07/05 04:14:33;;;;;;;21.52;16.90;;;19.50;89.00;;;;;;5049005;28;20032;-59
2023/07/05 04:17:19;;;;;;;19.92;16.73;;;19.50;89.10;;;;;;5050854;28;20108;-56
2023/07/05 04:20:05;;;;;;;21.55;16.83;;;19.60;89.30;;;;;;5052374;28;20029;-58
2023/07/05 04:22:51;;;;;;;19.95;16.77;;;19.60;89.10;;;;;;5035948;28;20060;-59
2023/07/05 04:25:37;;;;;;;21.25;16.30;;;19.60;89.00;;;;;;5032609;28;20033;-59
2023/07/05 04:28:23;;;;;;;20.35;17.20;;;19.70;89.00;;;;;;5032547;28;20037;-59
2023/07/05 04:31:17;;;;;;;19.15;16.55;;;19.70;88.80;;;;;;5058382;28;20236;-59
2023/07/05 04:34:02;;;;;;;26.65;17.02;;;19.70;88.20;;;;;;5046922;28;20505;-58
2023/07/05 04:36:48;;;;;;;19.58;17.33;;;19.70;88.40;;;;;;5031854;28;20524;-59
2023/07/05 04:39:35;;;;;;;21.23;17.23;;;19.70;88.00;;;;;;5037107;28;20536;-59
2023/07/05 04:42:21;;;;;;;22.08;18.00;;;19.70;88.20;;;;;;5035609;28;20069;-59
2023/07/05 04:45:07;;;;;;;18.55;16.42;;;19.70;88.00;;;;;;5035789;28;20402;-59
2023/07/05 04:47:53;;;;;;;22.15;17.45;;;19.70;88.30;;;;;;5053732;28;20385;-59
2023/07/05 04:50:39;;;;;;;25.17;19.15;;;19.70;88.20;;;;;;5043768;28;20037;-59
2023/07/05 04:53:28;;;;;;;20.95;18.52;;;19.80;87.50;;;;;;5035966;28;20033;-59
2023/07/05 04:56:15;;;;;;;22.02;18.67;;;19.80;87.70;;;;;;5039361;28;20068;-57
2023/07/05 04:59:01;;;;;;;20.42;18.02;;;19.90;87.80;;;;;;5041246;28;20025;-58
2023/07/05 05:01:47;;;;;;;25.48;18.58;;;19.80;87.60;;;;;;5037376;28;20021;-58
2023/07/05 05:04:33;;;;;;;24.35;17.80;;;19.70;88.00;;;;;;5047406;28;20025;-56
2023/07/05 05:07:19;;;;;;;26.23;17.50;;;19.50;89.60;;;;;;5043208;28;20117;-58
2023/07/05 05:10:05;;;;;;;21.15;17.75;;;19.40;89.90;;;;;;5041686;28;20030;-55
2023/07/05 05:12:51;;;;;;;27.48;17.73;;;19.20;90.30;;;;;;5036026;28;20573;-54
2023/07/05 05:15:38;;;;;;;25.25;19.65;;;19.10;90.40;;;;;;5036725;28;20033;-57
2023/07/05 05:18:27;;;;;;;23.95;18.25;;;19.10;90.60;;;;;;5049261;28;20413;-57
2023/07/05 05:21:13;;;;;;;22.88;18.13;;;19.20;90.70;;;;;;5035575;28;20037;-59
2023/07/05 05:23:59;;;;;;;19.40;16.52;;;19.20;90.80;;;;;;5036861;28;20018;-57
2023/07/05 05:26:46;;;;;;;20.33;17.17;;;19.40;90.70;;;;;;5035494;28;20037;-57
2023/07/05 05:29:32;;;;;;;22.35;17.02;;;19.50;90.50;;;;;;5035559;28;20039;-54
2023/07/05 05:32:18;;;;;;;26.92;18.17;;;19.70;90.40;;;;;;5034318;28;20044;-57
2023/07/05 05:35:05;;;;;;;29.35;17.48;;;19.70;90.30;;;;;;5043100;28;20037;-59
2023/07/05 05:37:51;;;;;;;22.10;16.80;;;19.60;90.40;;;;;;5036349;28;20461;-58
2023/07/05 05:40:37;;;;;;;22.83;16.77;;;19.70;90.40;;;;;;5042684;28;20439;-56
2023/07/05 05:43:23;;;;;;;23.23;17.27;;;19.80;90.40;;;;;;5046932;28;20030;-60
2023/07/05 05:46:09;;;;;;;29.17;16.98;;;19.90;90.40;;;;;;5056732;28;20033;-58
2023/07/05 05:48:55;;;;;;;23.60;17.20;;;19.80;90.30;;;;;;5051824;28;20112;-59
2023/07/05 05:51:41;;;;;;;25.55;15.90;;;19.80;90.30;;;;;;5057162;28;20052;-60
2023/07/05 05:54:27;;;;;;;23.63;16.40;;;19.80;90.40;;;;;;5054667;28;20021;-59
2023/07/05 05:57:13;;;;;;;22.30;19.00;;;19.80;90.50;;;;;;5053335;28;20035;-59
2023/07/05 05:59:59;;;;;;;24.95;17.58;;;19.80;91.30;;;;;;5055732;28;20025;-59
2023/07/05 06:02:45;;;;;;;21.98;15.20;;;19.70;90.80;;;;;;5041869;28;20029;-60
2023/07/05 06:05:34;;;;;;;21.65;15.68;;;19.80;91.00;;;;;;5051690;28;20025;-60
2023/07/05 06:08:20;;;;;;;19.40;15.35;;;19.70;91.30;;;;;;5051999;28;20059;-59
2023/07/05 06:11:06;;;;;;;24.35;15.02;;;19.70;91.30;;;;;;5055562;28;20087;-59
2023/07/05 06:13:52;;;;;;;22.70;13.30;;;19.70;91.30;;;;;;5053278;28;20040;-59
2023/07/05 06:16:38;;;;;;;20.20;12.30;;;19.60;91.40;;;;;;5050118;28;20052;-59
2023/07/05 06:19:24;;;;;;;15.95;11.27;;;19.80;91.40;;;;;;5035382;28;20108;-57
2023/07/05 06:22:10;;;;;;;14.73;11.43;;;19.80;91.70;;;;;;5035609;28;20493;-60
2023/07/05 06:24:56;;;;;;;15.60;10.60;;;19.80;91.90;;;;;;5040324;28;20041;-58
2023/07/05 06:27:42;;;;;;;13.18;9.55;;;19.90;92.40;;;;;;5033922;28;20034;-59
2023/07/05 06:30:28;;;;;;;12.55;9.18;;;19.90;92.30;;;;;;5038248;28;20040;-59
2023/07/05 06:33:14;;;;;;;18.65;9.00;;;19.80;92.60;;;;;;5052727;28;20083;-56
2023/07/05 06:36:00;;;;;;;10.95;8.25;;;19.80;93.00;;;;;;5052864;28;20060;-57
2023/07/05 06:38:46;;;;;;;10.63;8.57;;;19.70;93.30;;;;;;5048627;28;20025;-58
2023/07/05 06:41:32;;;;;;;12.05;8.70;;;19.70;93.50;;;;;;5043189;28;20061;-61
2023/07/05 06:44:18;;;;;;;11.15;8.98;;;19.70;93.60;;;;;;5060733;28;20100;-58
2023/07/05 06:47:04;;;;;;;10.77;8.98;;;19.70;93.60;;;;;;5055014;28;20033;-58
2023/07/05 06:49:50;;;;;;;15.20;9.50;;;19.70;93.60;;;;;;5053456;28;20053;-59
2023/07/05 06:52:37;;;;;;;14.02;9.10;;;19.70;93.50;;;;;;5039998;28;20056;-59
2023/07/05 06:55:23;;;;;;;11.02;8.52;;;19.80;93.60;;;;;;5061135;28;20426;-56
2023/07/05 06:58:09;;;;;;;18.17;9.43;;;19.80;93.60;;;;;;5032589;28;20498;-55
2023/07/05 07:00:55;;;;;;;12.48;8.85;;;19.80;93.40;;;;;;5027485;28;20100;-59
2023/07/05 07:03:41;;;;;;;11.40;8.50;;;20.00;92.90;;;;;;5030656;28;20061;-56
2023/07/05 07:06:27;;;;;;;16.33;9.48;;;20.10;93.00;;;;;;5037550;28;20518;-57
2023/07/05 07:09:13;;;;;;;11.93;8.75;;;20.10;93.00;;;;;;5038409;28;20040;-57
2023/07/05 07:11:59;;;;;;;14.95;9.43;;;20.20;92.90;;;;;;5032888;28;20037;-57
2023/07/05 07:14:45;;;;;;;14.70;9.60;;;20.20;92.60;;;;;;5033470;28;20112;-56
2023/07/05 07:17:31;;;;;;;17.95;9.10;;;20.20;92.60;;;;;;5033409;28;20044;-56
2023/07/05 07:20:19;;;;;;;14.68;8.95;;;20.40;92.60;;;;;;5041689;28;20060;-59
2023/07/05 07:23:05;;;;;;;18.35;9.32;;;20.50;92.20;;;;;;5035127;28;20025;-59
2023/07/05 07:26:13;;;;;;;14.00;8.77;;;20.50;92.40;;;;;;5034424;28;20401;-57
2023/07/05 07:28:59;;;;;;;12.90;8.02;;;20.50;92.40;;;;;;5030935;28;20030;-58
2023/07/05 07:31:45;;;;;;;11.32;8.05;;;20.50;92.60;;;;;;5032301;28;20040;-56
2023/07/05 07:34:32;;;;;;;11.98;8.63;;;20.60;92.60;;;;;;5076626;28;20128;-58
2023/07/05 07:37:17;;;;;;;13.85;8.35;;;20.70;92.50;;;;;;5039130;28;20044;-57
2023/07/05 07:40:06;;;;;;;9.95;7.88;;;20.70;92.60;;;;;;5060955;28;20060;-58
2023/07/05 07:42:52;;;;;;;10.60;7.55;;;21.00;92.50;;;;;;5047857;28;20026;-58
2023/07/05 07:45:38;;;;;;;9.40;7.22;;;21.00;92.60;;;;;;5034574;28;20409;-58
2023/07/05 07:48:24;;;;;;;12.18;7.60;;;21.10;92.50;;;;;;5033888;28;20061;-58
2023/07/05 07:51:10;;;;;;;8.75;6.93;;;21.40;92.50;;;;;;5060600;28;20033;-57
2023/07/05 07:53:56;;;;;;;7.72;6.05;;;21.50;92.30;;;;;;5038642;28;20096;-58
2023/07/05 07:56:44;;;;;;;7.68;6.22;;;21.60;92.30;;;;;;5039040;28;20459;-58
2023/07/05 07:59:30;;;;;;;11.75;6.80;;;21.80;92.40;;;;;;5033934;28;20151;-58
2023/07/05 08:02:16;;;;;;;7.22;4.88;;;22.00;92.30;;;;;;5033471;28;20506;-59
2023/07/05 08:05:13;;;;;;;7.18;4.43;;;22.00;92.80;;;;;;5034009;28;20037;-59
2023/07/05 08:07:59;;;;;;;9.05;4.53;;;22.00;93.00;;;;;;5033507;28;20029;-58
2023/07/05 08:10:44;;;;;;;6.53;4.35;;;22.00;92.90;;;;;;5034685;28;20034;-58
2023/07/05 08:13:31;;;;;;;7.28;3.95;;;22.00;93.00;;;;;;5045421;28;20077;-59
2023/07/05 08:16:17;;;;;;;4.57;3.40;;;22.20;93.30;;;;;;5039972;28;20108;-58
2023/07/05 08:19:04;;;;;;;5.78;3.92;;;22.10;93.00;;;;;;5033574;28;20068;-53
2023/07/05 08:21:50;;;;;;;4.63;3.47;;;22.20;93.50;;;;;;5032626;28;20030;-58
2023/07/05 08:24:36;;;;;;;8.40;3.95;;;22.30;93.20;;;;;;5032501;28;20032;-55
2023/07/05 08:27:22;;;;;;;4.32;3.28;;;22.40;93.40;;;;;;5031952;28;20049;-58
2023/07/05 08:30:08;;;;;;;4.47;3.25;;;22.30;93.40;;;;;;5031306;28;20040;-57
2023/07/05 08:32:54;;;;;;;5.82;3.00;;;22.20;93.30;;;;;;5012367;28;20062;-56
2023/07/05 08:35:40;;;;;;;6.43;2.95;;;22.20;93.30;;;;;;5030254;28;20108;-56
2023/07/05 08:38:26;;;;;;;4.00;3.60;;;22.30;93.00;;;;;;5029408;28;20448;-57
2023/07/05 08:41:41;;;;;;;6.00;3.75;;;22.40;93.10;;;;;;5029425;28;20033;-54
2023/07/05 08:44:58;;;;;;;5.65;3.38;;;22.50;93.30;;;;;;5017369;28;20025;-55
2023/07/05 08:47:50;;;;;;;6.50;3.10;;;22.70;93.00;;;;;;5030764;28;20113;-59
2023/07/05 08:50:44;;;;;;;3.47;3.00;;;22.60;93.00;;;;;;5030906;28;20055;-59
2023/07/05 08:53:37;;;;;;;5.03;2.65;;;22.60;92.90;;;;;;5030567;28;20060;-59
2023/07/05 08:56:38;;;;;;;6.28;3.00;;;22.50;93.10;;;;;;5028919;28;20030;-59
2023/07/05 08:59:30;;;;;;;8.98;3.30;;;22.50;93.50;;;;;;5030862;28;20025;-59
2023/07/05 09:02:19;;;;;;;8.80;3.90;;;22.40;93.20;;;;;;5031649;28;20162;-59
2023/07/05 09:05:16;;;;;;;11.20;4.38;;;22.30;93.40;;;;;;5031506;28;20072;-58
2023/07/05 09:08:28;;;;;;;12.57;4.35;;;22.20;93.40;;;;;;5031837;28;20037;-60
2023/07/05 09:11:37;;;;;;;9.20;4.05;;;22.10;93.50;;;;;;5030780;28;20033;-59
2023/07/05 09:14:53;;;;;;;6.35;3.95;;;21.90;93.80;;;;;;5035435;28;20112;-58
2023/07/05 09:18:01;;;;;;;9.18;3.92;;;21.70;94.30;;;;;;5029740;28;20053;-53
2023/07/05 09:20:59;;;;;;;9.60;4.03;;;21.70;94.70;;;;;;5031644;28;20018;-60
2023/07/05 09:23:51;;;;;;;6.25;3.95;;;21.60;95.10;;;;;;5038140;28;20022;-56
2023/07/05 09:26:43;;;;;;;6.95;4.13;;;21.50;95.40;;;;;;5031932;28;20037;-57
2023/07/05 09:29:34;;;;;;;11.35;4.22;;;21.50;95.60;;;;;;5036530;28;20116;-60
2023/07/05 09:32:28;;;;;;;8.15;4.28;;;21.60;95.50;;;;;;5034320;28;20021;-59
2023/07/05 09:35:20;;;;;;;6.93;3.83;;;21.60;95.50;;;;;;5036730;28;20036;-59
2023/07/05 09:38:19;;;;;;;5.80;3.67;;;21.70;95.30;;;;;;5054036;28;20021;-56
2023/07/05 09:41:13;;;;;;;9.77;4.18;;;21.70;95.20;;;;;;5053831;28;20455;-57
2023/07/05 09:43:59;;;;;;;6.53;4.00;;;21.80;95.50;;;;;;5014890;28;20487;-57
2023/07/05 09:46:46;;;;;;;9.65;4.82;;;21.80;95.20;;;;;;5030747;28;20033;-59
2023/07/05 09:49:32;;;;;;;6.30;4.07;;;22.00;95.00;;;;;;5040000;28;20030;-58
2023/07/05 09:52:22;;;;;;;6.88;3.65;;;22.00;94.90;;;;;;5078879;28;20067;-56
2023/07/05 09:55:13;;;;;;;6.75;3.85;;;22.00;94.60;;;;;;5058801;28;20488;-56
2023/07/05 09:57:59;;;;;;;8.10;3.95;;;22.10;94.50;;;;;;5054102;28;20029;-58
2023/07/05 10:00:46;;;;;;;7.60;4.25;;;22.40;94.20;;;;;;5033254;28;20029;-57
2023/07/05 10:03:35;;;;;;;8.32;3.97;;;22.40;94.00;;;;;;5033654;28;20037;-57
2023/07/05 10:06:24;;;;;;;5.05;3.20;;;22.60;93.80;;;;;;5033600;28;20029;-57
2023/07/05 10:09:14;;;;;;;5.82;3.38;;;22.70;93.30;;;;;;5034004;28;20558;-54
2023/07/05 10:12:10;;;;;;;5.43;3.30;;;22.70;93.20;;;;;;5036246;28;20037;-57
2023/07/05 10:14:56;;;;;;;6.70;3.30;;;22.80;93.30;;;;;;5058837;28;20079;-57
2023/07/05 10:17:44;;;;;;;8.55;3.45;;;22.70;93.10;;;;;;5054131;28;20395;-58
2023/07/05 10:20:38;;;;;;;7.50;3.78;;;22.50;93.30;;;;;;5050702;28;20186;-57
2023/07/05 10:23:25;;;;;;;4.72;3.47;;;22.50;93.70;;;;;;5053487;28;20021;-58
2023/07/05 10:26:11;;;;;;;4.72;3.25;;;22.70;93.40;;;;;;5044897;28;20112;-58
2023/07/05 10:28:59;;;;;;;7.30;4.35;;;22.70;93.70;;;;;;5061204;28;20101;-58
2023/07/05 10:31:52;;;;;;;5.35;3.17;;;22.80;93.50;;;;;;5054335;28;20053;-59
2023/07/05 10:34:43;;;;;;;10.63;3.63;;;22.80;93.60;;;;;;5038201;28;20032;-59
2023/07/05 10:37:29;;;;;;;8.65;3.08;;;22.90;93.30;;;;;;5033372;28;20087;-57
2023/07/05 10:40:16;;;;;;;4.93;2.90;;;22.90;92.60;;;;;;5033901;28;20022;-57
2023/07/05 10:43:02;;;;;;;6.10;2.92;;;22.90;92.70;;;;;;5034058;28;20025;-55
2023/07/05 10:45:48;;;;;;;6.03;3.55;;;23.00;92.80;;;;;;5034047;28;20063;-55
2023/07/05 10:48:44;;;;;;;4.90;3.10;;;23.00;92.90;;;;;;5013405;28;20414;-55
2023/07/05 10:51:35;;;;;;;5.65;4.05;;;23.10;92.80;;;;;;5014119;28;20470;-53
2023/07/05 10:54:32;;;;;;;3.55;3.20;;;23.40;92.30;;;;;;5013227;28;20037;-57
2023/07/05 10:57:41;;;;;;;6.78;3.33;;;23.30;91.80;;;;;;5012698;28;20413;-55
2023/07/05 11:00:38;;;;;;;8.88;3.42;;;23.30;92.20;;;;;;5025614;28;20032;-57
2023/07/05 11:03:45;;;;;;;5.32;3.08;;;23.20;91.40;;;;;;5012642;28;20022;-57
2023/07/05 11:06:35;;;;;;;7.88;3.78;;;23.10;91.80;;;;;;5013430;28;20033;-58
2023/07/05 11:09:21;;;;;;;5.80;3.58;;;23.20;91.50;;;;;;5027632;28;20083;-57
2023/07/05 11:12:16;;;;;;;5.15;3.63;;;23.30;91.20;;;;;;5033055;28;20036;-57
2023/07/05 11:15:02;;;;;;;4.18;3.42;;;23.40;89.40;;;;;;5042171;28;20033;-57
2023/07/05 11:17:49;;;;;;;6.03;3.75;;;23.30;89.20;;;;;;5039258;28;20424;-58
2023/07/05 11:20:36;;;;;;;6.40;3.53;;;23.40;88.80;;;;;;5031592;28;20056;-59
2023/07/05 11:23:40;;;;;;;7.03;4.07;;;23.50;88.10;;;;;;5037294;28;20025;-59
2023/07/05 11:26:38;;;;;;;8.52;4.32;;;23.50;87.80;;;;;;5028396;28;20455;-58
2023/07/05 11:29:27;;;;;;;6.95;4.50;;;23.50;87.70;;;;;;5037123;28;20087;-58
2023/07/05 11:32:13;;;;;;;7.35;4.15;;;23.50;87.00;;;;;;5042306;28;20116;-58
2023/07/05 11:34:59;;;;;;;7.90;4.78;;;23.50;86.70;;;;;;5030999;28;20057;-60
2023/07/05 11:37:46;;;;;;;9.50;5.53;;;23.40;86.00;;;;;;5032448;28;20032;-58
2023/07/05 11:41:04;;;;;;;8.40;5.32;;;23.20;87.80;;;;;;5032050;28;20040;-60
2023/07/05 11:44:01;;;;;;;10.00;5.00;;;23.20;86.70;;;;;;5042909;28;20528;-61
2023/07/05 11:46:50;;;;;;;7.30;5.82;;;23.20;86.00;;;;;;5050427;28;20025;-61
2023/07/05 11:49:42;;;;;;;8.05;5.00;;;23.30;85.00;;;;;;5050377;28;20033;-56
2023/07/05 11:52:30;;;;;;;6.60;4.55;;;23.30;83.80;;;;;;5032494;28;20040;-56
2023/07/05 11:55:26;;;;;;;5.57;4.72;;;23.30;80.00;;;;;;5034719;28;20057;-57
2023/07/05 11:58:18;;;;;;;8.82;4.50;;;23.30;79.50;;;;;;5033805;28;20048;-57
2023/07/05 12:01:05;;;;;;;9.45;5.47;;;23.40;78.10;;;;;;5051995;28;20021;-58
2023/07/05 12:03:55;;;;;;;6.53;4.95;;;23.50;79.20;;;;;;5049573;28;20023;-54
2023/07/05 12:06:42;;;;;;;10.15;5.20;;;23.30;78.80;;;;;;5051987;28;20029;-55
2023/07/05 12:09:36;;;;;;;7.80;5.45;;;23.20;79.50;;;;;;5032994;28;20033;-52
2023/07/05 12:12:22;;;;;;;8.25;5.60;;;23.40;78.80;;;;;;5031609;28;20104;-55
2023/07/05 12:15:11;;;;;;;8.43;5.68;;;23.30;78.30;;;;;;5031373;28;20517;-55
2023/07/05 12:17:56;;;;;;;8.52;5.65;;;23.50;77.70;;;;;;5034427;28;20041;-55
2023/07/05 12:20:47;;;;;;;10.68;5.30;;;23.70;77.10;;;;;;5031997;28;20101;-56
2023/07/05 12:23:35;;;;;;;9.35;5.82;;;23.80;75.70;;;;;;5031168;28;20030;-53
2023/07/05 12:26:31;;;;;;;10.48;5.47;;;23.50;75.90;;;;;;5011450;28;20022;-55
2023/07/05 12:29:28;;;;;;;11.98;5.35;;;23.20;76.00;;;;;;5027752;28;20064;-56
2023/07/05 12:32:20;;;;;;;8.05;4.60;;;23.40;75.00;;;;;;5032325;28;20171;-56
2023/07/05 12:35:17;;;;;;;10.88;4.63;;;23.30;72.80;;;;;;5049461;28;20083;-54
2023/07/05 12:38:16;;;;;;;8.38;5.75;;;23.20;72.80;;;;;;5034755;28;20017;-52
2023/07/05 12:41:03;;;;;;;9.25;5.22;;;23.30;73.20;;;;;;5050564;28;20037;-57
2023/07/05 12:43:57;;;;;;;10.50;5.57;;;23.50;72.80;;;;;;5039940;28;20022;-55
2023/07/05 12:46:44;;;;;;;10.25;6.43;;;23.60;72.40;;;;;;5045372;28;20512;-56
2023/07/05 12:49:31;;;;;;;10.85;6.45;;;23.50;73.60;;;;;;5050022;28;20033;-57
2023/07/05 12:52:22;;;;;;;11.88;5.97;;;23.50;72.00;;;;;;5011689;28;20037;-58
2023/07/05 12:55:28;;;;;;;7.50;5.68;;;23.70;73.40;;;;;;5023761;28;20437;-55
2023/07/05 12:58:15;;;;;;;7.90;4.90;;;23.60;73.00;;;;;;5027571;28;20036;-56
2023/07/05 13:01:02;;;;;;;10.90;5.22;;;23.60;71.80;;;;;;5036960;28;20405;-54
2023/07/05 13:03:49;;;;;;;7.70;5.13;;;23.50;71.50;;;;;;5037929;28;20025;-53
2023/07/05 13:06:35;;;;;;;9.20;5.00;;;23.60;72.10;;;;;;5034921;28;20021;-56
2023/07/05 13:09:29;;;;;;;8.82;4.53;;;23.60;71.80;;;;;;5034094;28;20033;-55
2023/07/05 13:12:15;;;;;;;8.30;4.05;;;23.80;70.70;;;;;;5032378;28;20025;-57
2023/07/05 13:15:07;;;;;;;5.72;3.50;;;23.60;69.00;;;;;;5034828;28;20064;-55
2023/07/05 13:17:53;;;;;;;5.88;3.70;;;23.50;69.20;;;;;;5034211;28;20052;-52
2023/07/05 13:20:41;;;;;;;5.65;3.40;;;23.30;68.80;;;;;;5028683;28;20034;-55
2023/07/05 13:23:28;;;;;;;6.20;3.17;;;23.50;69.60;;;;;;5018486;28;20029;-55
2023/07/05 13:26:30;;;;;;;5.70;3.08;;;23.60;69.10;;;;;;5023630;28;20020;-57
2023/07/05 13:29:27;;;;;;;4.68;3.10;;;23.70;69.00;;;;;;5035152;28;20052;-57
2023/07/05 13:32:26;;;;;;;9.40;3.55;;;23.80;68.50;;;;;;5039927;28;20530;-57
2023/07/05 13:35:12;;;;;;;5.80;3.08;;;23.70;67.70;;;;;;5036967;28;20203;-55
2023/07/05 13:37:59;;;;;;;8.95;2.95;;;23.60;68.60;;;;;;5034195;28;20109;-57
2023/07/05 13:40:55;;;;;;;8.52;3.35;;;23.80;68.50;;;;;;5014330;28;20517;-56
2023/07/05 13:43:41;;;;;;;7.70;3.55;;;23.80;68.10;;;;;;5034874;28;20080;-54
2023/07/05 13:46:27;;;;;;;8.02;3.00;;;23.80;67.70;;;;;;5033757;28;20053;-55
2023/07/05 13:49:14;;;;;;;5.70;3.20;;;23.80;67.50;;;;;;5050093;28;20033;-57
2023/07/05 13:52:01;;;;;;;6.65;3.22;;;23.70;67.10;;;;;;5053724;28;20033;-53
2023/07/05 13:54:48;;;;;;;6.32;3.40;;;23.80;67.90;;;;;;5055386;28;20044;-53
2023/07/05 13:57:35;;;;;;;6.60;3.08;;;24.10;67.60;;;;;;5054437;28;20504;-58
2023/07/05 14:00:26;;;;;;;6.93;3.40;;;24.10;66.50;;;;;;5047055;28;20036;-55
2023/07/05 14:03:13;;;;;;;7.13;3.10;;;24.00;66.40;;;;;;5044735;28;20044;-57
2023/07/05 14:05:59;;;;;;;4.78;3.40;;;23.80;67.80;;;;;;5053125;28;20025;-57
2023/07/05 14:08:46;;;;;;;6.65;3.40;;;23.90;67.20;;;;;;5015640;28;20559;-56
2023/07/05 14:11:38;;;;;;;7.18;3.47;;;23.90;67.70;;;;;;5015888;28;20029;-55
2023/07/05 14:14:24;;;;;;;8.48;3.80;;;24.00;67.40;;;;;;5036452;28;20025;-54
2023/07/05 14:17:21;;;;;;;5.05;3.42;;;24.20;67.20;;;;;;5036838;28;20040;-53
2023/07/05 14:20:09;;;;;;;6.53;3.55;;;24.30;67.90;;;;;;5051615;28;20060;-55
2023/07/05 14:22:54;;;;;;;6.15;3.40;;;24.70;67.60;;;;;;5029061;28;20060;-56
2023/07/05 14:25:46;;;;;;;6.32;3.35;;;24.40;67.50;;;;;;5034061;28;20033;-55
2023/07/05 14:28:33;;;;;;;7.03;3.50;;;24.00;68.00;;;;;;5033917;28;20041;-54
2023/07/05 14:31:19;;;;;;;6.13;3.90;;;24.00;68.40;;;;;;5015192;28;20065;-55